createdAt,value
2023-04-10T00:00:39.312Z,59.08
2023-04-10T00:06:01.046Z,58.61
2023-04-10T00:11:22.870Z,59.65
2023-04-10T00:16:44.690Z,60.03
2023-04-10T00:22:06.390Z,60.29
2023-04-10T00:27:28.117Z,60.57
2023-04-10T00:32:49.893Z,61.08
2023-04-10T00:38:11.968Z,60.80
2023-04-10T00:43:33.998Z,61.38
2023-04-10T00:48:56.295Z,62.28
2023-04-10T00:54:18.106Z,62.37
2023-04-10T00:59:39.851Z,62.44
2023-04-10T01:05:02.240Z,63.25
2023-04-10T01:10:36.359Z,62.67
2023-04-10T01:16:11.532Z,63.50
2023-04-10T01:21:36.573Z,63.87
2023-04-10T01:27:11.206Z,63.44
2023-04-10T01:32:35.504Z,62.54
2023-04-10T01:38:00.475Z,63.40
2023-04-10T01:43:24.584Z,64.64
2023-04-10T01:48:47.181Z,64.03
2023-04-10T01:54:09.103Z,63.89
2023-04-10T01:59:31.283Z,64.32
2023-04-10T02:04:52.990Z,64.70
2023-04-10T02:10:24.658Z,64.70
2023-04-10T02:15:48.303Z,66.04
2023-04-10T02:21:10.111Z,66.56
2023-04-10T02:26:49.831Z,67.05
2023-04-10T02:32:11.569Z,67.14
2023-04-10T02:37:33.312Z,67.42
2023-04-10T02:42:55.033Z,65.63
2023-04-10T02:48:16.907Z,64.61
2023-04-10T02:53:38.635Z,65.21
2023-04-10T02:59:00.581Z,66.00
2023-04-10T03:04:22.386Z,66.85
2023-04-10T03:09:44.151Z,67.57
2023-04-10T03:15:06.348Z,68.18
2023-04-10T03:20:28.099Z,67.80
2023-04-10T03:25:53.668Z,66.79
2023-04-10T03:31:15.463Z,66.08
2023-04-10T03:36:37.133Z,65.21
2023-04-10T03:41:58.854Z,66.27
2023-04-10T03:47:20.596Z,68.26
2023-04-10T03:52:42.321Z,69.20
2023-04-10T03:58:04.797Z,68.57
2023-04-10T04:03:26.724Z,68.22
2023-04-10T04:08:48.553Z,67.16
2023-04-10T04:14:10.254Z,67.68
2023-04-10T04:19:31.967Z,68.07
2023-04-10T04:24:53.653Z,69.11
2023-04-10T04:30:15.380Z,68.37
2023-04-10T04:35:37.096Z,68.28
2023-04-10T04:40:58.812Z,69.29
2023-04-10T04:46:20.569Z,70.26
2023-04-10T04:51:42.262Z,70.85
2023-04-10T04:57:04.128Z,70.94
2023-04-10T05:02:26.023Z,72.18
2023-04-10T05:07:47.808Z,71.41
2023-04-10T05:13:09.477Z,72.71
2023-04-10T05:18:31.288Z,72.85
2023-04-10T05:23:52.992Z,72.26
2023-04-10T05:29:14.694Z,72.09
2023-04-10T05:34:36.627Z,71.38
2023-04-10T05:39:59.391Z,71.93
2023-04-10T05:45:21.089Z,70.41
2023-04-10T05:50:42.793Z,69.39
2023-04-10T05:56:04.766Z,68.49
2023-04-10T06:01:26.673Z,67.89
2023-04-10T06:06:48.360Z,67.18
2023-04-10T06:12:10.042Z,68.02
2023-04-10T06:17:31.882Z,66.74
2023-04-10T06:22:53.879Z,67.09
2023-04-10T06:28:15.605Z,67.18
2023-04-10T06:33:37.311Z,67.32
2023-04-10T06:38:59.008Z,67.41
2023-04-10T06:44:20.789Z,66.90
2023-04-10T06:49:42.475Z,66.95
2023-04-10T06:55:04.807Z,66.66
2023-04-10T07:00:26.811Z,67.15
2023-04-10T07:05:48.606Z,66.77
2023-04-10T07:11:10.401Z,66.32
2023-04-10T07:16:32.756Z,65.21
2023-04-10T07:21:54.554Z,61.46
2023-04-10T07:27:16.968Z,62.01
2023-04-10T07:32:39.886Z,61.47
2023-04-10T07:38:02.064Z,63.73
2023-04-10T07:43:24.024Z,62.34
2023-04-10T07:48:47.496Z,63.50
2023-04-10T07:54:09.250Z,62.95
2023-04-10T07:59:30.945Z,61.06
2023-04-10T08:04:52.749Z,60.77
2023-04-10T08:10:14.662Z,59.08
2023-04-10T08:15:36.371Z,57.26
2023-04-10T08:20:58.042Z,55.68
2023-04-10T08:26:19.710Z,52.91
2023-04-10T08:31:41.450Z,51.80
2023-04-10T08:37:09.096Z,50.58
2023-04-10T08:42:33.876Z,50.29
2023-04-10T08:48:01.906Z,48.77
2023-04-10T08:53:25.370Z,49.44
2023-04-10T08:58:47.845Z,45.31
2023-04-10T09:04:11.845Z,46.58
2023-04-10T09:09:34.175Z,48.12
2023-04-10T09:14:56.599Z,49.11
2023-04-10T09:20:23.338Z,46.78
2023-04-10T09:25:45.156Z,45.44
2023-04-10T09:31:28.345Z,45.54
2023-04-10T09:36:58.517Z,46.05
2023-04-10T09:42:33.979Z,42.72
2023-04-10T09:48:08.557Z,40.10
2023-04-10T09:53:31.232Z,40.66
2023-04-10T09:58:56.658Z,40.85
2023-04-10T10:04:18.644Z,40.23
2023-04-10T10:09:41.822Z,40.22
2023-04-10T10:15:12.301Z,39.16
2023-04-10T10:20:36.605Z,39.54
2023-04-10T10:26:02.379Z,37.93
2023-04-10T10:31:26.144Z,38.72
2023-04-10T10:36:47.886Z,37.60
2023-04-10T10:42:30.053Z,36.43
2023-04-10T10:47:54.033Z,34.40
2023-04-10T10:53:34.183Z,34.36
2023-04-10T10:58:59.425Z,33.84
2023-04-10T11:04:44.778Z,31.84
2023-04-10T11:10:06.922Z,32.07
2023-04-10T11:15:28.788Z,31.79
2023-04-10T11:21:10.318Z,30.65
2023-04-10T11:26:35.345Z,31.39
2023-04-10T11:31:59.677Z,31.95
2023-04-10T11:37:24.413Z,28.98
2023-04-10T11:42:47.825Z,29.83
2023-04-10T11:48:09.566Z,27.31
2023-04-10T11:53:31.265Z,28.43
2023-04-10T11:58:54.445Z,26.81
2023-04-10T12:04:22.281Z,27.93
2023-04-10T12:09:44.181Z,27.12
2023-04-10T12:15:26.398Z,25.88
2023-04-10T12:20:48.502Z,25.94
2023-04-10T12:26:18.580Z,26.03
2023-04-10T12:31:40.818Z,23.62
2023-04-10T12:37:02.932Z,24.73
2023-04-10T12:42:26.281Z,24.24
2023-04-10T12:47:51.794Z,25.22
2023-04-10T12:53:14.164Z,24.62
2023-04-10T12:58:37.009Z,25.53
2023-04-10T13:03:58.848Z,25.71
2023-04-10T13:09:21.689Z,25.89
2023-04-10T13:14:43.391Z,26.45
2023-04-10T13:20:06.325Z,26.17
2023-04-10T13:25:28.273Z,26.73
2023-04-10T13:30:50.159Z,26.86
2023-04-10T13:36:11.970Z,27.09
2023-04-10T13:41:34.192Z,25.72
2023-04-10T13:46:57.951Z,26.49
2023-04-10T13:52:19.787Z,27.24
2023-04-10T13:57:42.794Z,27.43
2023-04-10T14:03:05.638Z,26.75
2023-04-10T14:08:27.520Z,27.23
2023-04-10T14:13:49.367Z,28.39
2023-04-10T14:19:11.075Z,28.16
2023-04-10T14:24:33.089Z,27.71
2023-04-10T14:29:55.755Z,28.18
2023-04-10T14:35:17.657Z,27.39
2023-04-10T14:40:42.008Z,29.05
2023-04-10T14:46:03.961Z,28.35
2023-04-10T14:51:26.230Z,27.92
2023-04-10T14:56:49.205Z,28.55
2023-04-10T15:02:10.975Z,28.31
2023-04-10T15:07:32.768Z,27.95
2023-04-10T15:12:54.491Z,28.92
2023-04-10T15:18:16.312Z,28.60
2023-04-10T15:23:38.008Z,28.57
2023-04-10T15:28:59.829Z,28.04
2023-04-10T15:34:21.510Z,28.78
2023-04-10T15:39:43.222Z,29.83
2023-04-10T15:45:05.387Z,30.64
2023-04-10T15:50:27.327Z,30.40
2023-04-10T15:55:49.071Z,29.63
2023-04-10T16:01:10.936Z,29.44
2023-04-10T16:06:33.213Z,30.47
2023-04-10T16:11:56.042Z,31.56
2023-04-10T16:17:17.942Z,31.53
2023-04-10T16:22:39.655Z,31.58
2023-04-10T16:28:01.693Z,31.30
2023-04-10T16:33:23.925Z,32.31
2023-04-10T16:38:49.445Z,32.40
2023-04-10T16:44:11.318Z,32.09
2023-04-10T16:49:33.020Z,32.24
2023-04-10T16:54:54.865Z,33.00
2023-04-10T17:00:16.870Z,33.50
2023-04-10T17:05:38.572Z,34.63
2023-04-10T17:11:00.695Z,33.87
2023-04-10T17:16:22.524Z,34.59
2023-04-10T17:21:44.233Z,34.60
2023-04-10T17:27:06.006Z,34.72
2023-04-10T17:32:27.782Z,33.94
2023-04-10T17:37:49.500Z,35.37
2023-04-10T17:43:11.197Z,34.90
2023-04-10T17:48:34.388Z,35.44
2023-04-10T17:53:56.552Z,35.10
2023-04-10T17:59:18.259Z,35.72
2023-04-10T18:04:40.094Z,34.90
2023-04-10T18:10:01.996Z,34.77
2023-04-10T18:15:24.522Z,35.57
2023-04-10T18:20:46.303Z,35.21
2023-04-10T18:26:07.993Z,34.71
2023-04-10T18:31:29.953Z,35.35
2023-04-10T18:36:51.965Z,34.07
2023-04-10T18:42:13.645Z,35.50
2023-04-10T18:47:35.362Z,36.20
2023-04-10T18:52:57.061Z,35.68
2023-04-10T18:58:22.208Z,36.10
2023-04-10T19:03:43.991Z,36.18
2023-04-10T19:09:05.934Z,36.45
2023-04-10T19:14:27.755Z,36.84
2023-04-10T19:19:49.729Z,37.55
2023-04-10T19:25:11.582Z,37.41
2023-04-10T19:30:33.368Z,37.23
2023-04-10T19:35:55.179Z,38.10
2023-04-10T19:41:17.865Z,37.52
2023-04-10T19:46:39.913Z,37.68
2023-04-10T19:52:01.658Z,37.97
2023-04-10T19:57:23.490Z,37.94
2023-04-10T20:02:45.424Z,38.83
2023-04-10T20:08:07.390Z,38.77
2023-04-10T20:13:29.093Z,39.57
2023-04-10T20:18:53.031Z,39.86
2023-04-10T20:24:15.180Z,40.94
2023-04-10T20:29:36.904Z,41.64
2023-04-10T20:34:58.712Z,42.23
2023-04-10T20:40:20.591Z,43.39
2023-04-10T20:45:42.327Z,43.14
2023-04-10T20:51:05.044Z,43.89
2023-04-10T20:56:33.100Z,44.32
2023-04-10T21:01:59.030Z,44.28
2023-04-10T21:07:20.912Z,45.01
2023-04-10T21:12:42.951Z,44.49
2023-04-10T21:18:05.163Z,44.75
2023-04-10T21:23:26.946Z,45.49
2023-04-10T21:28:48.637Z,45.19
2023-04-10T21:34:10.496Z,44.76
2023-04-10T21:39:32.321Z,44.80
2023-04-10T21:44:54.638Z,45.50
2023-04-10T21:50:16.368Z,44.29
2023-04-10T21:55:38.260Z,44.59
2023-04-10T22:01:00.685Z,44.22
2023-04-10T22:06:22.423Z,44.96
2023-04-10T22:11:44.141Z,43.90
2023-04-10T22:17:05.886Z,45.44
2023-04-10T22:22:27.775Z,44.41
2023-04-10T22:27:49.538Z,44.02
2023-04-10T22:33:12.002Z,44.80
2023-04-10T22:38:33.726Z,44.61
2023-04-10T22:43:55.475Z,44.18
2023-04-10T22:49:17.145Z,44.79
2023-04-10T22:54:38.841Z,44.52
2023-04-10T23:00:00.815Z,45.21
2023-04-10T23:05:22.718Z,45.59
2023-04-10T23:10:44.404Z,46.42
2023-04-10T23:16:06.661Z,47.04
2023-04-10T23:21:28.418Z,47.10
2023-04-10T23:26:50.155Z,47.40
2023-04-10T23:32:11.815Z,47.43
2023-04-10T23:37:36.465Z,47.92
2023-04-10T23:42:58.165Z,47.77
2023-04-10T23:48:19.851Z,48.91
2023-04-10T23:53:41.533Z,49.21
2023-04-10T23:59:03.505Z,49.41
